ECH weather

Echuca Airport
Victoria, Australia

Public forecast

Using degrees Celsius for public forecast. Weather courtesy of forecast.io.

METAR (pilot weather report)

Closest report is Wangaratta Airport, 76.4 nm (141.4 km) ESE. Retrieved 2019/03/22 16:00 UTC (27 minutes ago):

YWGT 221600Z AUTO 13005KT 9999 // NCD 16/15 Q1012

TAF (pilot weather forecast)

Closest forecast is Wangaratta Airport, 76.4 nm (141.4 km) ESE. Retrieved 2019/03/22 14:33 UTC (2 hours ago):

TAF YWGT 221330Z 2214/2302 09003KT CAVOK FM230100 09012KT CAVOK